Minamitorishima, Japan
Current Conditions -  °F | °C
As of 9:00 PM on Monday 26 Jan 2015 (Local Time) from RJAW Reporting Station
Few Clouds Few Clouds  
Wind Chill: 64°   Ceiling: Unl
Heat Index: 64°   Visibility: 6mi
Dew Point: 54°   Wind: 16mph
Humidity: 68%   Direction: 110°ESE
Pressure: 30.12"   Gusts: NA
Location:  24.3°N, 153.97°E
Report Text: RJAW 261200Z 11014KT 9999 FEW020 18/12 Q1020 RMK 2CU020 A3012
Loading
Personal Weather Stations






























Interactive Weather Map New forecast layout! Learn more

10-Day Weather Forecast

Advertisements
Track Severe Weather on mobile